Latest Coastal Weather Observations for Arlington Reef

IDQ60701

Issued at 8:12 pm EST Sunday 1 February 2015 (issued every 10 minutes, with the page automatically refreshed every 10 minutes)

About coastal observations | Map of coastal stations | Coastal observations for QLD | Marine services | Other Formats
Station Details ID: 200879 Name: ARLINGTON REEF Lat: -16.72 Lon: 146.11 Height: 0.0 m
Data from the previous 72 hours. | See also: Recent months at Arlington Reef
Date/Time
EST
Temp

°C
Wind Pressure Rain
since 9am
mm
Weather Cloud Vis
km
Sea
Height
m
Swell
Dir
 
Speed
knots
Gust
knots
hPa Trend Height
m
Period
s
Dir
01/08:00pm - NNE 7 8 1006.3 - - - - - - - - -
01/07:30pm - NNE 7 9 1006.0 - - - - - - - - -
01/07:00pm - NE 10 11 1005.4 - - - - - - - - -
01/06:30pm - NE 9 11 1005.2 - - - - - - - - -
01/06:00pm - NE 11 13 1004.9 - - - - - - - - -
01/05:30pm - NE 11 13 1004.7 - - - - - - - - -
01/05:00pm - NE 12 13 1004.7 - - - - - - - - -
01/04:30pm - NE 13 14 1004.4 - - - - - - - - -
01/04:00pm - NNE 12 13 1004.6 - - - - - - - - -
01/03:30pm - NNE 11 12 1004.8 - - - - - - - - -
01/03:00pm - N 8 10 1005.1 - - - - - - - - -
01/02:30pm - N 7 8 1005.4 - - - - - - - - -
01/02:00pm - N 7 8 1005.6 - - - - - - - - -
01/01:30pm - NNW 7 8 1005.9 - - - - - - - - -
01/01:00pm - NNW 5 7 1006.2 - - - - - - - - -
01/12:30pm - NW 7 8 1006.6 - - - - - - - - -
01/12:00pm - NW 9 11 1006.8 - - - - - - - - -
01/11:30am - NW 10 11 1007.1 - - - - - - - - -
01/11:00am - NW 10 12 1007.6 - - - - - - - - -
01/10:30am - NW 9 11 1008.1 - - - - - - - - -
01/10:00am - WNW 7 10 1008.3 - - - - - - - - -
01/09:30am - WNW 7 8 1008.4 - - - - - - - - -
01/09:00am - WNW 6 8 1008.1 - - - - - - - - -
01/08:30am - WNW 8 9 1008.0 - - - - - - - - -
01/08:00am - WNW 7 9 1007.8 - - - - - - - - -
01/07:30am - WNW 7 9 1007.4 - - - - - - - - -
01/07:00am - WNW 7 8 1007.3 - - - - - - - - -
01/06:30am - NW 6 8 1007.2 - - - - - - - - -
01/06:00am - NW 5 7 1006.8 - - - - - - - - -
01/05:30am - WNW 5 6 1006.5 - - - - - - - - -
01/05:00am - W 4 6 1006.3 - - - - - - - - -
01/04:30am - NNW 4 6 1006.3 - - - - - - - - -
01/04:00am - N 4 5 1006.1 - - - - - - - - -
01/03:30am - N 4 5 1006.2 - - - - - - - - -
01/03:00am - N 5 7 1006.2 - - - - - - - - -
01/02:30am - N 6 7 1006.3 - - - - - - - - -
01/02:00am - NE 4 6 1006.5 - - - - - - - - -
01/01:30am - NE 4 6 1006.6 - - - - - - - - -
01/01:00am - NE 3 5 1007.0 - - - - - - - - -
01/12:30am - ENE 5 6 1007.5 - - - - - - - - -
01/12:00am - ENE 5 6 1008.0 - - - - - - - - -
 
Date/Time
EST
Temp

°C
Wind Pressure Rain
since 9am
mm
Weather Cloud Vis
km
Sea
Height
m
Swell
Dir
 
Speed
knots
Gust
knots
hPa Trend Height
m
Period
s
Dir
31/11:30pm - E 6 7 1008.2 - - - - - - - - -
31/11:00pm - ENE 6 8 1008.3 - - - - - - - - -
31/10:30pm - ENE 5 7 1008.4 - - - - - - - - -
31/10:00pm - ENE 5 6 1008.3 - - - - - - - - -
31/09:30pm - ENE 5 7 1008.2 - - - - - - - - -
31/09:00pm - ENE 6 7 1008.3 - - - - - - - - -
31/08:30pm - E 7 8 1007.8 - - - - - - - - -
31/08:00pm - ESE 9 11 1007.1 - - - - - - - - -
31/07:30pm - ESE 9 11 1006.7 - - - - - - - - -
31/07:00pm - ESE 7 9 1006.6 - - - - - - - - -
31/06:30pm - ESE 8 9 1006.3 - - - - - - - - -
31/06:00pm - SE 6 8 1006.0 - - - - - - - - -
31/05:30pm - SE 6 8 1005.9 - - - - - - - - -
31/05:00pm - ESE 8 10 1005.4 - - - - - - - - -
31/04:30pm - SE 9 11 1005.2 - - - - - - - - -
31/04:00pm - SE 9 10 1004.8 - - - - - - - - -
31/03:30pm - SE 10 12 1005.0 - - - - - - - - -
31/03:00pm - SE 11 13 1005.2 - - - - - - - - -
31/02:30pm - SE 10 13 1005.3 - - - - - - - - -
31/02:00pm - SE 10 12 1005.8 - - - - - - - - -
31/01:30pm - SE 9 11 1005.9 - - - - - - - - -
31/01:00pm - SE 8 10 1006.2 - - - - - - - - -
31/12:30pm - SE 9 11 1006.3 - - - - - - - - -
31/12:00pm - SE 9 11 1006.7 - - - - - - - - -
31/11:30am - SE 5 7 1007.2 - - - - - - - - -
31/11:00am - SE 4 5 1007.4 - - - - - - - - -
31/10:30am - SSE 3 4 1007.6 - - - - - - - - -
31/10:00am - CALM 0 2 1007.8 - - - - - - - - -
31/09:30am - ESE 2 3 1007.8 - - - - - - - - -
31/09:00am - S 2 3 1007.8 - - - - - - - - -
31/08:30am - CALM 0 1 1008.0 - - - - - - - - -
31/08:00am - CALM 0 0 1008.1 - - - - - - - - -
31/07:30am - NW 2 3 1007.7 - - - - - - - - -
31/07:00am - WNW 3 4 1007.2 - - - - - - - - -
31/06:30am - W 3 5 1007.1 - - - - - - - - -
31/06:00am - SSW 4 6 1006.8 - - - - - - - - -
31/05:30am - SSW 4 5 1006.6 - - - - - - - - -
31/05:00am - SSE 8 10 1006.3 - - - - - - - - -
31/04:30am - S 10 11 1006.1 - - - - - - - - -
31/04:00am - S 12 15 1006.0 - - - - - - - - -
31/03:30am - S 12 14 1006.2 - - - - - - - - -
31/03:00am - S 14 16 1006.2 - - - - - - - - -
31/02:30am - S 14 18 1006.2 - - - - - - - - -
31/02:00am - S 16 18 1006.3 - - - - - - - - -
31/01:30am - SSE 16 19 1006.6 - - - - - - - - -
31/01:00am - SSE 21 25 1006.8 - - - - - - - - -
31/12:30am - SSE 24 28 1006.6 - - - - - - - - -
31/12:08am - ESE 16 31 1006.6 - - - - - - - - -
31/12:00am - ESE 11 14 1007.0 - - - - - - - - -
 
Date/Time
EST
Temp

°C
Wind Pressure Rain
since 9am
mm
Weather Cloud Vis
km
Sea
Height
m
Swell
Dir
 
Speed
knots
Gust
knots
hPa Trend Height
m
Period
s
Dir
30/11:30pm - E 8 9 1007.1 - - - - - - - - -
30/11:00pm - ESE 7 8 1007.2 - - - - - - - - -
30/10:30pm - ESE 5 7 1007.2 - - - - - - - - -
30/10:00pm - ESE 5 7 1006.9 - - - - - - - - -
30/09:30pm - ESE 5 7 1006.4 - - - - - - - - -
30/09:00pm - SE 7 9 1006.2 - - - - - - - - -
30/08:30pm - SE 8 9 1006.1 - - - - - - - - -
30/08:00pm - SE 8 9 1005.9 - - - - - - - - -
30/07:30pm - ESE 8 10 1005.2 - - - - - - - - -
30/07:00pm - ESE 8 9 1004.8 - - - - - - - - -
30/06:30pm - E 7 9 1004.5 - - - - - - - - -
30/06:00pm - ESE 9 11 1004.1 - - - - - - - - -
30/05:30pm - SE 9 10 1004.1 - - - - - - - - -
30/05:00pm - SE 11 13 1003.8 - - - - - - - - -
30/04:30pm - ESE 11 13 1003.6 - - - - - - - - -
30/04:00pm - ESE 12 14 1003.3 - - - - - - - - -
30/03:30pm - ESE 11 13 1003.4 - - - - - - - - -
30/03:00pm - ESE 11 13 1003.7 - - - - - - - - -
30/02:30pm - ESE 10 12 1003.9 - - - - - - - - -
30/02:00pm - ESE 9 11 1004.3 - - - - - - - - -
30/01:30pm - SE 9 11 1004.5 - - - - - - - - -
30/01:00pm - SE 9 10 1004.9 - - - - - - - - -
30/12:30pm - SE 9 11 1005.2 - - - - - - - - -
30/12:00pm - SE 9 11 1005.5 - - - - - - - - -
30/11:30am - SSE 10 13 1005.9 - - - - - - - - -
30/11:00am - SSE 9 11 1006.0 - - - - - - - - -
30/10:30am - S 9 10 1006.0 - - - - - - - - -
30/10:00am - S 9 10 1006.1 - - - - - - - - -
30/09:30am - S 11 12 1006.0 - - - - - - - - -
30/09:00am - S 10 13 1005.9 - - - - - - - - -
30/08:30am - S 9 11 1005.7 - - - - - - - - -
30/08:00am - SSE 7 8 1005.7 - - - - - - - - -
30/07:30am - S 6 8 1005.8 - - - - - - - - -
30/07:00am - SSE 3 5 1005.5 - - - - - - - - -
30/06:30am - S 5 7 1005.1 - - - - - - - - -
30/06:00am - SSE 7 8 1004.6 - - - - - - - - -
30/05:30am - SSE 6 8 1004.3 - - - - - - - - -
30/05:00am - SE 4 5 1004.1 - - - - - - - - -
30/04:30am - S 5 6 1004.1 - - - - - - - - -
30/04:00am - SSE 2 3 1003.9 - - - - - - - - -
30/03:30am - SSE 3 4 1003.9 - - - - - - - - -
30/03:00am - S 4 5 1003.8 - - - - - - - - -
30/02:30am - S 4 5 1003.9 - - - - - - - - -
30/02:00am - SSE 4 5 1004.1 - - - - - - - - -
30/01:30am - S 5 6 1004.5 - - - - - - - - -
30/01:00am - SSW 3 4 1004.7 - - - - - - - - -
30/12:30am - SW 2 3 1005.0 - - - - - - - - -
30/12:00am - SW 1 3 1005.3 - - - - - - - - -
 
Date/Time
EST
Temp

°C
Wind Pressure Rain
since 9am
mm
Weather Cloud Vis
km
Sea
Height
m
Swell
Dir
 
Speed
knots
Gust
knots
hPa Trend Height
m
Period
s
Dir
29/11:30pm - CALM 0 0 1005.5 - - - - - - - - -
29/11:00pm - SSW 1 2 1005.6 - - - - - - - - -
29/10:30pm - S 2 3 1005.4 - - - - - - - - -
29/10:00pm - S 2 3 1005.1 - - - - - - - - -
29/09:30pm - CALM 0 2 1004.8 - - - - - - - - -
29/09:00pm - CALM 0 1 1004.6 - - - - - - - - -
29/08:30pm - SE 1 2 1004.5 - - - - - - - - -

Other Formats:

Comma delimited format used in spreadsheet applications
http://www.bom.gov.au/fwo/IDQ60701/IDQ60701.94284.axf

JavaScript Object Notation format (JSON) in row-major order
http://www.bom.gov.au/fwo/IDQ60701/IDQ60701.94284.json